This is the latest recevied weather packets stored in our database for station/object KC1OEK-13. If no packets are shown the sender has not sent any weather packets the latest 10 day(s).
| Time | Temp. | Humidity | Pressure | Rain* | Wind** | Luminosity | Snow |
|---|---|---|---|---|---|---|---|
| 1787933814 | 26.67° C | 71% | 1018.9 hPa | 0 mm | - | 746 W/m² | - |
| 1787933510 | 26.67° C | 72% | 1018.9 hPa | 0 mm | - | 178 W/m² | - |
| 1787933204 | 26.11° C | 76% | 1019 hPa | 0 mm | - | 251 W/m² | - |
| 1787932899 | 26.11° C | 75% | 1019 hPa | 0 mm | - | 779 W/m² | - |
| 1787932598 | 27.22° C | 71% | 1018.7 hPa | 0 mm | - | 703 W/m² | - |
| 1787932297 | 27.22° C | 72% | 1019.1 hPa | 0 mm | - | 361 W/m² | - |
| 1787931991 | 26.67° C | 76% | 1019.1 hPa | 0 mm | - | 734 W/m² | - |
| 1787931686 | 25.56° C | 77% | 1019.1 hPa | 0 mm | - | 679 W/m² | - |
| 1787931380 | 25.56° C | 78% | 1018.9 hPa | 0 mm | - | 346 W/m² | - |
| 1787931075 | 25.56° C | 78% | 1019 hPa | 0 mm | - | 299 W/m² | - |
| 1787930774 | 25.56° C | 76% | 1019.1 hPa | 0 mm | - | 281 W/m² | - |
| 1787930468 | 25.56° C | 79% | 1019.2 hPa | 0 mm | - | 400 W/m² | - |
| 1787930164 | 24.44° C | 82% | 1019.5 hPa | 0 mm | - | 703 W/m² | - |
| 1787929862 | 24.44° C | 82% | 1019.4 hPa | 0 mm | - | 204 W/m² | - |
| 1787929557 | 24.44° C | 81% | 1019.4 hPa | 0 mm | - | 214 W/m² | - |
| 1787929256 | 24.44° C | 82% | 1019.2 hPa | 0 mm | - | 166 W/m² | - |
| 1787928955 | 24.44° C | 83% | 1019.3 hPa | 0 mm | - | 206 W/m² | - |
| 1787928650 | 23.89° C | 84% | 1019.4 hPa | 0 mm | - | 255 W/m² | - |
| 1787928348 | 23.89° C | 84% | 1019.2 hPa | 0 mm | - | 244 W/m² | - |
| 1787928047 | 23.89° C | 82% | 1019.2 hPa | 0 mm | - | 184 W/m² | - |
| 1787927747 | 23.89° C | 82% | 1019.1 hPa | 0 mm | - | 204 W/m² | - |
| 1787927442 | 24.44° C | 83% | 1019 hPa | 0 mm | - | 253 W/m² | - |
| 1787927137 | 23.89° C | 85% | 1019.2 hPa | 0 mm | - | 242 W/m² | - |
| 1787926832 | 23.89° C | 85% | 1019.1 hPa | 0 mm | - | 360 W/m² | - |
| 1787926531 | 23.89° C | 86% | 1019.2 hPa | 0 mm | - | 258 W/m² | - |
* Rain latest hour (hover to see other rain measurements)
** Current wind speed in m/s (hover to see current wind gust speed)